createdAt,value
2022-12-04T00:01:27.710Z,2.97
2022-12-04T00:06:22.588Z,2.69
2022-12-04T00:11:19.318Z,3.08
2022-12-04T00:16:16.337Z,2.73
2022-12-04T00:21:11.902Z,3.06
2022-12-04T00:26:07.436Z,2.49
2022-12-04T00:31:05.772Z,2.01
2022-12-04T00:35:59.561Z,2.45
2022-12-04T00:40:53.282Z,2.35
2022-12-04T00:45:46.805Z,2.39
2022-12-04T00:50:42.188Z,3.04
2022-12-04T00:55:35.686Z,2.77
2022-12-04T01:00:28.924Z,2.39
2022-12-04T01:05:22.543Z,1.83
2022-12-04T01:10:17.282Z,2.46
2022-12-04T01:15:11.777Z,2.13
2022-12-04T01:20:06.184Z,2.79
2022-12-04T01:24:59.700Z,3.11
2022-12-04T01:29:54.670Z,2.92
2022-12-04T01:34:50.931Z,2.78
2022-12-04T01:39:44.257Z,3.16
2022-12-04T01:44:37.522Z,2.92
2022-12-04T01:49:35.632Z,3.18
2022-12-04T01:54:32.049Z,3.19
2022-12-04T01:59:30.688Z,3.04
2022-12-04T02:04:24.469Z,2.71
2022-12-04T02:09:25.969Z,3.15
2022-12-04T02:14:26.252Z,3.17
2022-12-04T02:19:50.593Z,3.05
2022-12-04T02:24:54.169Z,2.84
2022-12-04T02:29:59.113Z,2.53
2022-12-04T02:34:58.148Z,2.47
2022-12-04T02:39:56.202Z,3.05
2022-12-04T02:44:55.384Z,3.22
2022-12-04T02:49:54.165Z,2.97
2022-12-04T02:54:52.613Z,2.87
2022-12-04T02:59:49.054Z,2.41
2022-12-04T03:04:44.100Z,3.21
2022-12-04T03:09:43.688Z,3.10
2022-12-04T03:14:41.733Z,2.65
2022-12-04T03:19:40.595Z,3.35
2022-12-04T03:24:39.050Z,2.61
2022-12-04T03:29:39.998Z,3.37
2022-12-04T03:34:40.083Z,3.38
2022-12-04T03:39:40.120Z,3.40
2022-12-04T03:44:40.248Z,3.29
2022-12-04T03:49:43.081Z,3.42
2022-12-04T03:54:44.291Z,3.14
2022-12-04T03:59:41.889Z,2.71
2022-12-04T04:04:37.657Z,3.49
2022-12-04T04:09:40.588Z,3.42
2022-12-04T04:14:58.476Z,3.53
2022-12-04T04:20:15.150Z,3.53
2022-12-04T04:25:12.483Z,3.32
2022-12-04T04:30:09.846Z,3.28
2022-12-04T04:35:12.345Z,3.27
2022-12-04T04:40:15.170Z,3.62
2022-12-04T04:45:15.067Z,3.61
2022-12-04T04:50:12.273Z,3.49
2022-12-04T04:55:07.202Z,3.65
2022-12-04T05:00:01.241Z,3.42
2022-12-04T05:04:56.716Z,3.66
2022-12-04T05:09:50.156Z,3.18
2022-12-04T05:14:43.433Z,3.71
2022-12-04T05:19:55.698Z,3.61
2022-12-04T05:24:50.519Z,3.07
2022-12-04T05:29:43.911Z,3.49
2022-12-04T05:34:39.497Z,2.82
2022-12-04T05:39:32.880Z,3.79
2022-12-04T05:44:27.567Z,3.37
2022-12-04T05:49:21.154Z,2.95
2022-12-04T05:54:14.560Z,3.83
2022-12-04T05:59:08.107Z,3.87
2022-12-04T06:04:02.910Z,3.91
2022-12-04T06:08:58.733Z,3.52
2022-12-04T06:13:52.466Z,3.85
2022-12-04T06:18:46.244Z,2.62
2022-12-04T06:23:40.854Z,3.18
2022-12-04T06:28:43.618Z,3.45
2022-12-04T06:33:37.862Z,3.02
2022-12-04T06:38:31.830Z,3.98
2022-12-04T06:43:26.574Z,3.67
2022-12-04T06:48:19.949Z,4.01
2022-12-04T06:53:13.095Z,3.47
2022-12-04T06:58:06.351Z,2.96
2022-12-04T07:03:00.958Z,3.84
2022-12-04T07:07:54.232Z,2.71
2022-12-04T07:12:48.063Z,2.93
2022-12-04T07:17:41.242Z,3.09
2022-12-04T07:22:35.940Z,4.21
2022-12-04T07:27:31.771Z,4.25
2022-12-04T07:32:25.119Z,3.51
2022-12-04T07:37:18.325Z,4.22
2022-12-04T07:42:13.038Z,4.40
2022-12-04T07:47:06.356Z,4.26
2022-12-04T07:52:01.564Z,3.86
2022-12-04T07:56:54.715Z,3.33
2022-12-04T08:01:49.262Z,3.69
2022-12-04T08:06:42.591Z,4.68
2022-12-04T08:11:36.091Z,4.60
2022-12-04T08:16:33.014Z,3.49
2022-12-04T08:21:30.005Z,4.86
2022-12-04T08:26:25.116Z,3.66
2022-12-04T08:31:21.491Z,4.31
2022-12-04T08:36:16.741Z,5.02
2022-12-04T08:41:14.816Z,4.13
2022-12-04T08:46:10.578Z,4.81
2022-12-04T08:51:05.078Z,5.19
2022-12-04T08:55:58.572Z,4.78
2022-12-04T09:00:53.301Z,5.26
2022-12-04T09:05:47.089Z,5.28
2022-12-04T09:10:40.810Z,5.18
2022-12-04T09:15:34.515Z,5.20
2022-12-04T09:20:29.585Z,5.29
2022-12-04T09:25:25.423Z,4.80
2022-12-04T09:30:18.929Z,4.42
2022-12-04T09:35:12.222Z,4.91
2022-12-04T09:40:43.413Z,5.81
2022-12-04T09:45:59.063Z,4.50
2022-12-04T09:51:27.612Z,4.63
2022-12-04T09:56:50.980Z,5.76
2022-12-04T10:02:45.268Z,5.32
2022-12-04T10:08:38.868Z,4.97
2022-12-04T10:14:48.529Z,5.08
2022-12-04T10:21:19.148Z,5.14
2022-12-04T10:26:44.315Z,5.90
2022-12-04T10:32:34.953Z,6.13
2022-12-04T10:37:33.180Z,5.81
2022-12-04T10:42:32.640Z,5.80
2022-12-04T10:47:28.583Z,6.00
2022-12-04T10:52:28.151Z,5.81
2022-12-04T10:57:21.684Z,6.32
2022-12-04T11:02:24.905Z,5.85
2022-12-04T11:07:27.940Z,5.56
2022-12-04T11:12:26.621Z,6.42
2022-12-04T11:17:26.836Z,5.54
2022-12-04T11:22:24.116Z,6.05
2022-12-04T11:27:31.944Z,5.43
2022-12-04T11:32:35.462Z,5.16
2022-12-04T11:37:35.894Z,6.18
2022-12-04T11:42:38.183Z,5.41
2022-12-04T12:39:56.784Z,6.66
2022-12-04T13:01:11.312Z,6.03
2022-12-04T13:56:56.046Z,5.22
2022-12-04T14:03:05.039Z,5.12
2022-12-04T14:08:08.823Z,6.43
2022-12-04T14:13:07.157Z,6.43
2022-12-04T14:18:17.530Z,5.46
2022-12-04T14:23:27.543Z,6.69
2022-12-04T14:28:45.321Z,5.61
2022-12-04T14:33:48.861Z,6.25
2022-12-04T14:38:52.853Z,5.44
2022-12-04T14:43:52.449Z,5.43
2022-12-04T14:49:05.316Z,5.52
2022-12-04T14:54:13.932Z,6.51
2022-12-04T14:59:16.969Z,5.41
2022-12-04T15:04:18.528Z,6.21
2022-12-04T15:09:41.428Z,5.71
2022-12-04T15:14:49.763Z,5.66
2022-12-04T15:19:49.408Z,5.14
2022-12-04T15:25:02.421Z,6.48
2022-12-04T15:30:01.135Z,6.05
2022-12-04T15:34:57.040Z,5.64
2022-12-04T15:39:53.115Z,5.17
2022-12-04T15:45:24.442Z,5.71
2022-12-04T15:50:29.461Z,5.09
2022-12-04T15:55:26.861Z,6.29
2022-12-04T16:00:27.700Z,5.24
2022-12-04T16:05:35.642Z,5.24
2022-12-04T16:10:37.065Z,5.10
2022-12-04T16:15:37.928Z,6.03
2022-12-04T16:20:31.787Z,5.95
2022-12-04T16:25:26.831Z,6.19
2022-12-04T16:30:23.381Z,5.17
2022-12-04T16:35:18.184Z,6.00
2022-12-04T16:40:16.262Z,5.20
2022-12-04T16:45:22.406Z,6.28
2022-12-04T16:50:17.770Z,5.76
2022-12-04T16:55:22.117Z,6.00
2022-12-04T17:00:30.941Z,5.04
2022-12-04T17:05:30.074Z,4.92
2022-12-04T17:10:24.728Z,5.00
2022-12-04T17:15:21.010Z,5.81
2022-12-04T17:20:18.286Z,5.74
2022-12-04T17:25:13.842Z,4.99
2022-12-04T17:30:12.406Z,4.88
2022-12-04T17:35:13.346Z,5.03
2022-12-04T17:40:32.415Z,4.66
2022-12-04T17:45:26.129Z,5.89
2022-12-04T17:50:20.055Z,4.88
2022-12-04T17:55:21.414Z,5.50
2022-12-04T18:00:47.891Z,5.14
2022-12-04T18:05:41.537Z,5.18
2022-12-04T18:29:10.405Z,5.59
2022-12-04T18:47:47.012Z,5.13
2022-12-04T18:53:22.082Z,4.62
2022-12-04T18:58:56.914Z,6.15
2022-12-04T19:04:47.174Z,5.85
2022-12-04T19:10:13.291Z,5.42
2022-12-04T19:15:20.065Z,4.99
2022-12-04T19:26:39.880Z,5.09
2022-12-04T19:31:58.859Z,5.13
2022-12-04T19:37:08.413Z,6.08
2022-12-04T19:42:10.707Z,5.33
2022-12-04T19:47:12.895Z,5.00
2022-12-04T19:52:06.800Z,4.67
2022-12-04T19:57:13.138Z,5.73
2022-12-04T20:02:12.803Z,5.83
2022-12-04T20:07:12.631Z,5.75
2022-12-04T20:12:26.621Z,4.45
2022-12-04T20:17:34.906Z,5.08
2022-12-04T20:22:30.353Z,5.22
2022-12-04T20:27:24.701Z,5.90
2022-12-04T20:32:23.994Z,6.30
2022-12-04T20:37:23.636Z,5.93
2022-12-04T20:42:33.854Z,5.94
2022-12-04T20:47:28.494Z,5.82
2022-12-04T20:52:31.899Z,5.59
2022-12-04T20:57:28.560Z,5.94
2022-12-04T21:02:36.192Z,5.75
2022-12-04T21:07:33.332Z,5.19
2022-12-04T21:12:46.486Z,5.18
2022-12-04T21:17:52.669Z,4.88
2022-12-04T21:23:09.029Z,6.32
2022-12-04T21:28:05.780Z,5.38
2022-12-04T21:33:04.470Z,5.32
2022-12-04T21:38:13.028Z,5.94
2022-12-04T21:43:10.086Z,5.05
2022-12-04T21:48:03.820Z,5.15
2022-12-04T21:53:00.394Z,5.24
2022-12-04T21:57:59.995Z,6.23
2022-12-04T22:02:56.932Z,6.04
2022-12-04T22:07:53.702Z,6.21
2022-12-04T22:12:50.761Z,5.77
2022-12-04T22:17:48.971Z,5.82
2022-12-04T22:22:42.699Z,5.76
2022-12-04T22:27:54.796Z,4.83
2022-12-04T22:32:54.864Z,6.07
2022-12-04T22:37:53.671Z,5.20
2022-12-04T22:42:49.438Z,4.89
2022-12-04T22:47:44.507Z,5.05
2022-12-04T22:52:39.888Z,5.28
2022-12-04T22:57:36.357Z,5.21
2022-12-04T23:02:34.274Z,5.15
2022-12-04T23:07:37.088Z,5.96
2022-12-04T23:12:32.093Z,4.84
2022-12-04T23:17:25.568Z,5.19
2022-12-04T23:22:22.748Z,5.88
2022-12-04T23:27:18.642Z,5.89
2022-12-04T23:32:20.090Z,5.13
2022-12-04T23:37:20.279Z,5.02
2022-12-04T23:42:14.886Z,5.38
2022-12-04T23:47:08.497Z,5.37
2022-12-04T23:52:05.390Z,4.99
2022-12-04T23:56:58.874Z,5.37
